createdAt,value
2016-10-25T00:00:20.410Z,0
2016-10-25T00:01:30.738Z,0
2016-10-25T00:02:41.065Z,0
2016-10-25T00:03:51.365Z,0
2016-10-25T00:05:01.875Z,0
2016-10-25T00:06:11.857Z,0
2016-10-25T00:07:22.154Z,0
2016-10-25T00:08:32.438Z,0
2016-10-25T00:09:42.771Z,0
2016-10-25T00:10:53.084Z,0
2016-10-25T00:12:03.070Z,0
2016-10-25T00:13:13.366Z,0
2016-10-25T00:14:23.048Z,0
2016-10-25T00:15:33.325Z,0
2016-10-25T00:16:42.992Z,0
2016-10-25T00:17:52.975Z,0
2016-10-25T00:19:02.960Z,0
2016-10-25T00:20:13.288Z,0
2016-10-25T00:21:22.970Z,0
2016-10-25T00:22:33.265Z,0
2016-10-25T00:23:43.247Z,0
2016-10-25T00:24:53.533Z,0
2016-10-25T00:26:03.530Z,0
2016-10-25T00:27:13.531Z,0
2016-10-25T00:28:23.818Z,0
2016-10-25T00:29:34.035Z,0
2016-10-25T00:30:44.321Z,0
2016-10-25T00:31:54.313Z,0
2016-10-25T00:33:04.314Z,0
2016-10-25T00:34:14.609Z,0
2016-10-25T00:35:24.914Z,0
2016-10-25T00:36:34.599Z,0
2016-10-25T00:37:44.583Z,0
2016-10-25T00:38:54.606Z,0
2016-10-25T00:40:04.619Z,0
2016-10-25T00:41:14.902Z,0
2016-10-25T00:42:24.889Z,0
2016-10-25T00:43:34.550Z,0
2016-10-25T00:44:44.851Z,0
2016-10-25T00:45:55.133Z,0
2016-10-25T00:47:05.131Z,0
2016-10-25T00:48:15.118Z,0
2016-10-25T00:49:25.095Z,0
2016-10-25T00:50:35.102Z,0
2016-10-25T00:51:44.763Z,0
2016-10-25T00:52:54.750Z,0
2016-10-25T00:54:04.739Z,0
2016-10-25T00:55:15.041Z,0
2016-10-25T00:56:25.319Z,0
2016-10-25T00:57:35.310Z,0
2016-10-25T00:58:45.592Z,0
2016-10-25T00:59:55.879Z,0
2016-10-25T01:01:06.163Z,0
2016-10-25T01:02:16.187Z,0
2016-10-25T01:03:26.483Z,0
2016-10-25T01:04:36.160Z,0
2016-10-25T01:05:45.832Z,0
2016-10-25T01:06:56.118Z,0
2016-10-25T01:08:06.101Z,0
2016-10-25T01:09:16.403Z,0
2016-10-25T01:10:26.388Z,0
2016-10-25T01:11:36.384Z,0
2016-10-25T01:12:46.367Z,0
2016-10-25T01:13:56.033Z,0
2016-10-25T01:15:05.995Z,0
2016-10-25T01:16:15.972Z,0
2016-10-25T01:17:25.951Z,0
2016-10-25T01:18:35.936Z,0
2016-10-25T01:19:46.303Z,0
2016-10-25T01:20:55.979Z,0
2016-10-25T01:22:05.966Z,0
2016-10-25T01:23:16.282Z,0
2016-10-25T01:24:26.310Z,0
2016-10-25T01:25:36.605Z,0
2016-10-25T01:26:46.892Z,0
2016-10-25T01:27:56.889Z,0
2016-10-25T01:29:06.551Z,0
2016-10-25T01:30:16.542Z,0
2016-10-25T01:31:25.910Z,0
2016-10-25T01:32:35.895Z,0
2016-10-25T01:33:46.187Z,0
2016-10-25T01:34:56.474Z,0
2016-10-25T01:36:06.785Z,0
2016-10-25T01:37:17.083Z,0
2016-10-25T01:38:26.799Z,0
2016-10-25T01:39:36.786Z,0
2016-10-25T01:40:46.773Z,0
2016-10-25T01:41:56.745Z,0
2016-10-25T01:43:06.719Z,0
2016-10-25T01:44:16.713Z,0
2016-10-25T01:45:27.010Z,0
2016-10-25T01:46:37.293Z,0
2016-10-25T01:47:47.580Z,0
2016-10-25T01:48:57.855Z,0
2016-10-25T01:50:07.221Z,0
2016-10-25T01:51:17.554Z,0
2016-10-25T01:52:27.836Z,0
2016-10-25T01:53:38.130Z,0
2016-10-25T01:54:48.407Z,0
2016-10-25T01:55:58.389Z,0
2016-10-25T01:57:08.700Z,0
2016-10-25T01:58:18.987Z,0
2016-10-25T01:59:29.270Z,0
2016-10-25T02:00:39.256Z,0
2016-10-25T02:01:48.942Z,0
2016-10-25T02:02:59.234Z,0
2016-10-25T02:04:09.527Z,0
2016-10-25T02:05:19.513Z,0
2016-10-25T02:06:29.814Z,0
2016-10-25T02:07:40.111Z,0
2016-10-25T02:08:49.787Z,0
2016-10-25T02:09:59.801Z,0
2016-10-25T02:11:09.171Z,0
2016-10-25T02:12:19.497Z,0
2016-10-25T02:13:29.485Z,0
2016-10-25T02:14:39.481Z,0
2016-10-25T02:15:49.463Z,0
2016-10-25T02:16:59.136Z,0
2016-10-25T02:18:09.151Z,0
2016-10-25T02:19:18.196Z,0
2016-10-25T02:20:28.180Z,0
2016-10-25T02:21:37.858Z,0
2016-10-25T02:22:48.146Z,0
2016-10-25T02:23:58.430Z,0
2016-10-25T02:25:08.407Z,0
2016-10-25T02:26:18.696Z,0
2016-10-25T02:27:29.030Z,0
2016-10-25T02:28:39.332Z,0
2016-10-25T02:29:49.618Z,0
2016-10-25T02:30:59.610Z,0
2016-10-25T02:32:08.976Z,0
2016-10-25T02:33:19.258Z,0
2016-10-25T02:34:29.541Z,0
2016-10-25T02:35:39.831Z,0
2016-10-25T02:36:50.101Z,0
2016-10-25T02:38:00.086Z,0
2016-10-25T02:39:10.421Z,0
2016-10-25T02:40:20.703Z,0
2016-10-25T02:41:30.685Z,0
2016-10-25T02:42:40.961Z,0
2016-10-25T02:43:50.651Z,0
2016-10-25T02:45:00.980Z,0
2016-10-25T02:46:11.269Z,0
2016-10-25T02:47:21.255Z,0
2016-10-25T02:48:31.565Z,0
2016-10-25T02:49:41.861Z,0
2016-10-25T02:50:52.139Z,0
2016-10-25T02:52:02.120Z,0
2016-10-25T02:53:12.413Z,0
2016-10-25T02:54:22.765Z,0
2016-10-25T02:55:33.034Z,0
2016-10-25T02:56:43.053Z,0
2016-10-25T02:57:53.019Z,0
2016-10-25T02:59:02.700Z,0
2016-10-25T03:00:12.718Z,0
2016-10-25T03:01:22.705Z,0
2016-10-25T03:32:51.655Z,0
2016-10-25T03:34:01.923Z,0
2016-10-25T03:35:11.889Z,0
2016-10-25T03:36:21.911Z,0
2016-10-25T03:37:32.192Z,0
2016-10-25T03:38:41.880Z,0
2016-10-25T03:39:51.866Z,0
2016-10-25T03:41:02.138Z,0
2016-10-25T03:42:12.099Z,0
2016-10-25T03:43:22.387Z,0
2016-10-25T03:44:32.383Z,0
2016-10-25T03:45:42.360Z,0
2016-10-25T03:46:51.722Z,0
2016-10-25T03:48:02.057Z,0
2016-10-25T03:49:12.034Z,0
2016-10-25T03:50:22.016Z,0
2016-10-25T03:51:32.024Z,0
2016-10-25T03:52:42.004Z,0
2016-10-25T03:53:51.689Z,0
2016-10-25T03:55:01.438Z,0
2016-10-25T03:56:11.725Z,0
2016-10-25T03:57:22.021Z,0
2016-10-25T03:58:31.983Z,0
2016-10-25T03:59:41.955Z,0
2016-10-25T04:00:51.631Z,0
2016-10-25T04:02:01.605Z,0
2016-10-25T04:03:11.580Z,0
2016-10-25T04:04:21.866Z,0
2016-10-25T04:05:32.197Z,0
2016-10-25T04:06:42.179Z,0
2016-10-25T04:07:51.851Z,0
2016-10-25T04:09:02.183Z,0
2016-10-25T04:10:12.160Z,0
2016-10-25T04:11:22.450Z,0
2016-10-25T04:12:32.740Z,0
2016-10-25T04:13:43.094Z,0
2016-10-25T04:14:53.126Z,0
2016-10-25T04:16:03.403Z,0
2016-10-25T04:17:13.691Z,0
2016-10-25T04:18:23.986Z,0
2016-10-25T04:19:34.301Z,0
2016-10-25T04:20:44.276Z,0
2016-10-25T04:21:54.563Z,0
2016-10-25T04:23:04.533Z,0
2016-10-25T04:24:14.506Z,0
2016-10-25T04:25:24.802Z,0
2016-10-25T04:26:35.090Z,0
2016-10-25T04:27:44.759Z,0
2016-10-25T04:28:54.781Z,0
2016-10-25T04:30:04.763Z,0
2016-10-25T04:31:14.743Z,0
2016-10-25T04:32:24.746Z,0
2016-10-25T04:33:34.741Z,0
2016-10-25T04:34:45.030Z,0
2016-10-25T04:35:55.307Z,0
2016-10-25T04:37:05.599Z,0
2016-10-25T04:38:15.881Z,0
2016-10-25T04:39:25.578Z,0
2016-10-25T04:40:35.880Z,0
2016-10-25T04:41:45.556Z,0
2016-10-25T04:42:55.877Z,0
2016-10-25T04:44:06.179Z,0
2016-10-25T04:45:16.466Z,0
2016-10-25T04:46:26.464Z,0
2016-10-25T04:47:36.136Z,0
2016-10-25T04:48:46.137Z,0
2016-10-25T04:49:56.145Z,0
2016-10-25T04:51:06.120Z,0
2016-10-25T04:52:15.801Z,0
2016-10-25T04:53:25.489Z,0
2016-10-25T04:54:35.774Z,0
2016-10-25T04:55:45.756Z,0
2016-10-25T04:56:55.127Z,0
2016-10-25T04:58:05.100Z,0
2016-10-25T04:59:14.767Z,0
2016-10-25T05:00:25.060Z,0
2016-10-25T05:01:35.055Z,0
2016-10-25T05:02:45.342Z,0
2016-10-25T05:03:55.630Z,0
2016-10-25T05:05:04.987Z,0
2016-10-25T05:06:15.280Z,0
2016-10-25T05:07:25.308Z,0
2016-10-25T05:08:35.316Z,0
2016-10-25T05:09:45.617Z,0
2016-10-25T05:10:55.603Z,0
2016-10-25T05:12:05.895Z,0
2016-10-25T05:13:16.209Z,0
2016-10-25T05:14:26.499Z,0
2016-10-25T05:15:36.160Z,0
2016-10-25T05:16:46.163Z,0
2016-10-25T05:17:56.457Z,0
2016-10-25T05:19:06.751Z,0
2016-10-25T05:20:17.052Z,0
2016-10-25T05:21:27.074Z,0
2016-10-25T05:22:36.761Z,0
2016-10-25T05:23:47.072Z,0
2016-10-25T05:24:57.345Z,0
2016-10-25T05:26:07.641Z,0
2016-10-25T05:27:17.951Z,0
2016-10-25T05:28:27.939Z,0
2016-10-25T05:29:37.605Z,0
2016-10-25T05:30:47.592Z,0
2016-10-25T05:31:57.579Z,0
2016-10-25T05:33:07.537Z,0
2016-10-25T05:34:17.515Z,0
2016-10-25T05:35:27.792Z,0
2016-10-25T05:36:38.061Z,0
2016-10-25T05:37:48.353Z,0
2016-10-25T05:38:58.649Z,0
2016-10-25T05:40:08.312Z,0
2016-10-25T05:41:17.733Z,0
2016-10-25T05:42:28.010Z,0
2016-10-25T05:43:38.001Z,0
2016-10-25T05:44:47.057Z,0
2016-10-25T05:45:57.375Z,0
2016-10-25T05:47:07.662Z,0
2016-10-25T05:48:17.955Z,0
2016-10-25T05:49:28.250Z,0
2016-10-25T05:50:38.251Z,0
2016-10-25T05:51:48.244Z,0
2016-10-25T05:52:58.535Z,5
2016-10-25T05:54:08.821Z,5
2016-10-25T05:55:19.105Z,5
2016-10-25T05:56:29.425Z,5
2016-10-25T05:57:39.712Z,5
2016-10-25T05:58:49.995Z,5
2016-10-25T06:00:00.279Z,5
2016-10-25T06:01:10.547Z,5
2016-10-25T06:02:20.529Z,5
2016-10-25T06:03:30.815Z,5
2016-10-25T06:04:40.796Z,10
2016-10-25T06:05:51.088Z,10
2016-10-25T06:07:01.410Z,10
2016-10-25T06:08:11.696Z,10
2016-10-25T06:09:22.018Z,10
2016-10-25T06:10:31.380Z,10
2016-10-25T06:11:41.343Z,10
2016-10-25T06:12:51.324Z,10
2016-10-25T06:14:01.605Z,10
2016-10-25T06:15:11.271Z,10
2016-10-25T06:16:21.243Z,5
2016-10-25T06:17:31.530Z,10
2016-10-25T06:18:41.492Z,10
2016-10-25T06:19:51.466Z,10
2016-10-25T06:21:01.140Z,10
2016-10-25T06:22:11.119Z,10
2016-10-25T06:23:21.413Z,10
2016-10-25T06:24:31.700Z,10
2016-10-25T06:25:41.693Z,10
2016-10-25T06:26:51.666Z,10
2016-10-25T06:28:01.944Z,10
2016-10-25T06:29:12.234Z,10
2016-10-25T06:30:22.208Z,10
2016-10-25T06:31:31.575Z,10
2016-10-25T06:32:41.857Z,10
2016-10-25T06:33:52.154Z,10
2016-10-25T06:35:02.432Z,10
2016-10-25T06:36:12.109Z,10
2016-10-25T06:37:22.089Z,10
2016-10-25T06:38:32.067Z,10
2016-10-25T06:39:41.745Z,10
2016-10-25T06:40:51.425Z,10
2016-10-25T06:42:01.402Z,10
2016-10-25T06:43:11.082Z,10
2016-10-25T06:44:21.059Z,15
2016-10-25T06:45:30.470Z,15
2016-10-25T06:46:40.148Z,15
2016-10-25T06:47:50.138Z,20
2016-10-25T06:48:59.819Z,20
2016-10-25T06:50:09.826Z,25
2016-10-25T06:51:19.800Z,25
2016-10-25T06:52:29.796Z,35
2016-10-25T06:53:40.083Z,40
2016-10-25T06:54:50.445Z,40
2016-10-25T06:56:00.461Z,40
2016-10-25T06:57:10.446Z,40
2016-10-25T06:58:20.425Z,45
2016-10-25T06:59:30.767Z,45
2016-10-25T07:00:41.040Z,55
2016-10-25T07:01:51.326Z,70
2016-10-25T07:03:01.621Z,70
2016-10-25T07:04:11.606Z,75
2016-10-25T07:05:21.577Z,75
2016-10-25T07:06:31.545Z,60
2016-10-25T07:07:40.939Z,50
2016-10-25T07:08:51.253Z,45
2016-10-25T07:10:01.534Z,40
2016-10-25T07:11:11.534Z,35
2016-10-25T07:12:21.198Z,30
2016-10-25T07:13:31.507Z,30
2016-10-25T07:14:41.793Z,30
2016-10-25T07:15:52.117Z,30
2016-10-25T07:17:02.093Z,30
2016-10-25T07:18:12.150Z,30
2016-10-25T07:19:22.451Z,30
2016-10-25T07:20:32.789Z,30
2016-10-25T07:21:43.099Z,35
2016-10-25T07:22:53.377Z,40
2016-10-25T07:24:03.662Z,40
2016-10-25T07:25:13.649Z,50
2016-10-25T07:26:23.632Z,60
2016-10-25T07:27:33.627Z,80
2016-10-25T07:28:43.915Z,90
2016-10-25T07:29:53.893Z,105
2016-10-25T07:31:03.888Z,105
2016-10-25T07:32:13.555Z,110
2016-10-25T07:33:23.843Z,85
2016-10-25T07:34:34.137Z,80
2016-10-25T07:35:44.421Z,65
2016-10-25T07:36:54.413Z,55
2016-10-25T07:38:04.088Z,55
2016-10-25T07:39:14.373Z,55
2016-10-25T07:40:23.737Z,65
2016-10-25T07:41:33.723Z,80
2016-10-25T07:42:43.731Z,75
2016-10-25T07:43:54.017Z,60
2016-10-25T07:45:04.309Z,55
2016-10-25T07:46:14.299Z,55
2016-10-25T07:47:24.591Z,60
2016-10-25T07:48:34.879Z,70
2016-10-25T07:49:44.566Z,85
2016-10-25T07:50:54.537Z,90
2016-10-25T07:52:03.907Z,90
2016-10-25T07:53:14.196Z,95
2016-10-25T07:54:24.202Z,100
2016-10-25T07:55:34.490Z,110
2016-10-25T07:56:44.782Z,110
2016-10-25T07:57:55.092Z,110
2016-10-25T07:59:05.071Z,110
2016-10-25T08:00:15.040Z,115
2016-10-25T08:01:25.013Z,120
2016-10-25T08:02:34.989Z,125
2016-10-25T08:03:45.298Z,130
2016-10-25T08:04:55.618Z,135
2016-10-25T08:06:05.958Z,150
2016-10-25T08:07:16.247Z,150
2016-10-25T08:08:26.543Z,140
2016-10-25T08:09:36.845Z,160
2016-10-25T08:10:46.838Z,160
2016-10-25T08:11:56.818Z,165
2016-10-25T08:13:07.090Z,125
2016-10-25T08:14:17.392Z,95
2016-10-25T08:15:27.673Z,100
2016-10-25T08:16:38.029Z,130
2016-10-25T08:17:47.767Z,145
2016-10-25T08:18:57.752Z,150
2016-10-25T08:20:08.040Z,145
2016-10-25T08:21:18.027Z,160
2016-10-25T08:22:28.017Z,160
2016-10-25T08:23:37.999Z,165
2016-10-25T08:24:48.297Z,180
2016-10-25T08:25:58.588Z,190
2016-10-25T08:27:08.864Z,195
2016-10-25T08:28:18.860Z,175
2016-10-25T08:29:29.145Z,185
2016-10-25T08:30:39.120Z,175
2016-10-25T08:31:48.791Z,175
2016-10-25T08:32:59.123Z,180
2016-10-25T08:34:09.119Z,165
2016-10-25T08:35:19.408Z,175
2016-10-25T08:36:29.402Z,195
2016-10-25T08:37:39.379Z,185
2016-10-25T08:38:49.672Z,190
2016-10-25T08:39:59.959Z,185
2016-10-25T08:41:09.630Z,210
2016-10-25T08:42:19.302Z,220
2016-10-25T08:43:29.594Z,220
2016-10-25T08:44:39.570Z,235
2016-10-25T08:45:49.864Z,270
2016-10-25T08:46:59.550Z,275
2016-10-25T08:48:09.559Z,285
2016-10-25T08:49:19.874Z,290
2016-10-25T08:50:29.865Z,285
2016-10-25T08:51:40.177Z,270
2016-10-25T08:52:50.522Z,260
2016-10-25T08:54:00.504Z,260
2016-10-25T08:55:10.809Z,235
2016-10-25T08:56:21.111Z,205
2016-10-25T08:57:31.098Z,215
2016-10-25T08:58:41.401Z,170
2016-10-25T08:59:51.377Z,185
2016-10-25T09:01:01.054Z,230
2016-10-25T09:02:11.343Z,255
2016-10-25T09:03:21.335Z,220
2016-10-25T09:04:31.009Z,220
2016-10-25T09:05:40.990Z,215
2016-10-25T09:06:50.976Z,220
2016-10-25T09:08:00.959Z,230
2016-10-25T09:09:10.650Z,245
2016-10-25T09:10:20.356Z,280
2016-10-25T09:11:30.348Z,280
2016-10-25T09:12:40.660Z,255
2016-10-25T09:13:50.962Z,250
2016-10-25T09:15:00.953Z,245
2016-10-25T09:16:11.273Z,255
2016-10-25T09:17:20.642Z,295
2016-10-25T09:18:30.323Z,315
2016-10-25T09:19:40.347Z,300
2016-10-25T09:20:50.327Z,295
2016-10-25T09:22:00.313Z,290
2016-10-25T09:23:10.299Z,275
2016-10-25T09:24:20.592Z,285
2016-10-25T09:25:30.894Z,265
2016-10-25T09:26:41.196Z,285
2016-10-25T09:27:51.507Z,240
2016-10-25T09:29:01.169Z,240
2016-10-25T09:30:10.851Z,300
2016-10-25T09:31:21.159Z,275
2016-10-25T09:32:31.498Z,295
2016-10-25T09:33:41.175Z,215
2016-10-25T09:34:50.853Z,215
2016-10-25T09:36:01.128Z,215
2016-10-25T09:37:11.116Z,205
2016-10-25T09:38:20.802Z,210
2016-10-25T09:39:30.814Z,205
2016-10-25T09:40:40.800Z,205
2016-10-25T09:41:51.112Z,205
2016-10-25T09:43:01.139Z,200
2016-10-25T09:44:11.440Z,200
2016-10-25T09:45:21.422Z,200
2016-10-25T09:46:36.822Z,200
2016-10-25T09:47:49.976Z,195
2016-10-25T09:49:06.591Z,190
2016-10-25T09:50:22.648Z,185
2016-10-25T09:51:35.089Z,190
2016-10-25T09:52:45.425Z,200
2016-10-25T09:53:55.109Z,210
2016-10-25T09:55:05.124Z,210
2016-10-25T09:56:15.121Z,210
2016-10-25T09:57:25.431Z,215
2016-10-25T09:58:35.796Z,210
2016-10-25T09:59:46.122Z,210
2016-10-25T10:00:55.796Z,200
2016-10-25T10:02:06.111Z,195
2016-10-25T10:03:16.429Z,195
2016-10-25T10:04:26.736Z,195
2016-10-25T10:05:37.033Z,205
2016-10-25T10:06:47.358Z,210
2016-10-25T10:07:57.662Z,210
2016-10-25T10:09:07.046Z,215
2016-10-25T10:10:17.360Z,230
2016-10-25T10:11:27.353Z,220
2016-10-25T10:12:37.340Z,220
2016-10-25T10:13:47.652Z,220
2016-10-25T10:14:57.954Z,215
2016-10-25T10:16:07.978Z,210
2016-10-25T10:17:18.293Z,205
2016-10-25T10:18:28.294Z,195
2016-10-25T10:19:38.609Z,195
2016-10-25T10:20:48.929Z,200
2016-10-25T10:21:58.908Z,205
2016-10-25T10:23:09.226Z,205
2016-10-25T10:24:19.537Z,210
2016-10-25T10:25:29.540Z,245
2016-10-25T10:26:39.212Z,220
2016-10-25T10:27:49.584Z,240
2016-10-25T10:28:59.899Z,250
2016-10-25T10:30:09.894Z,245
2016-10-25T10:31:19.896Z,245
2016-10-25T10:32:30.212Z,230
2016-10-25T10:33:40.524Z,220
2016-10-25T10:34:50.533Z,210
2016-10-25T10:36:00.854Z,205
2016-10-25T10:37:10.566Z,200
2016-10-25T10:38:35.448Z,185
2016-10-25T10:39:45.445Z,180
2016-10-25T10:40:55.729Z,175
2016-10-25T10:42:06.049Z,165
2016-10-25T10:43:16.365Z,155
2016-10-25T10:44:26.357Z,150
2016-10-25T10:45:36.399Z,140
2016-10-25T10:46:46.701Z,130
2016-10-25T10:47:56.373Z,125
2016-10-25T10:49:06.701Z,130
2016-10-25T10:50:16.080Z,135
2016-10-25T10:51:25.812Z,145
2016-10-25T10:52:35.188Z,150
2016-10-25T10:53:45.190Z,155
2016-10-25T10:54:54.913Z,160
2016-10-25T10:56:04.934Z,160
2016-10-25T10:57:14.939Z,155
2016-10-25T10:58:24.932Z,145
2016-10-25T10:59:34.951Z,140
2016-10-25T11:00:45.251Z,140
2016-10-25T11:01:55.563Z,140
2016-10-25T11:03:05.850Z,155
2016-10-25T11:04:15.851Z,150
2016-10-25T11:05:26.377Z,170
2016-10-25T11:06:36.675Z,175
2016-10-25T11:07:46.673Z,175
2016-10-25T11:08:56.970Z,180
2016-10-25T11:10:07.294Z,175
2016-10-25T11:11:17.286Z,175
2016-10-25T11:12:27.592Z,175
2016-10-25T11:13:37.906Z,175
2016-10-25T11:14:48.250Z,180
2016-10-25T11:15:57.329Z,180
2016-10-25T11:17:07.334Z,210
2016-10-25T11:18:17.039Z,180
2016-10-25T11:19:27.333Z,180
2016-10-25T11:20:36.702Z,180
2016-10-25T11:21:46.372Z,175
2016-10-25T11:22:56.372Z,190
2016-10-25T11:24:06.666Z,175
2016-10-25T11:25:16.336Z,180
2016-10-25T11:26:26.623Z,190
2016-10-25T11:27:36.610Z,175
2016-10-25T11:28:46.897Z,160
2016-10-25T11:29:56.888Z,155
2016-10-25T11:31:06.879Z,150
2016-10-25T11:32:17.182Z,145
2016-10-25T11:33:27.174Z,145
2016-10-25T11:34:36.854Z,140
2016-10-25T11:35:47.141Z,140
2016-10-25T11:36:57.443Z,140
2016-10-25T11:38:07.746Z,135
2016-10-25T11:39:18.048Z,135
2016-10-25T11:40:28.348Z,140
2016-10-25T11:41:38.342Z,140
2016-10-25T11:42:48.632Z,145
2016-10-25T11:43:58.620Z,140
2016-10-25T11:45:08.925Z,135
2016-10-25T11:46:19.222Z,135
2016-10-25T11:47:29.529Z,130
2016-10-25T11:48:39.835Z,130
2016-10-25T11:49:49.828Z,135
2016-10-25T11:51:00.132Z,130
2016-10-25T11:52:10.130Z,125
2016-10-25T11:53:19.508Z,120
2016-10-25T11:54:29.825Z,120
2016-10-25T11:55:40.105Z,120
2016-10-25T11:56:49.798Z,120
2016-10-25T11:57:59.775Z,120
2016-10-25T11:59:10.061Z,120
2016-10-25T12:00:20.051Z,115
2016-10-25T12:01:30.380Z,115
2016-10-25T12:02:40.370Z,115
2016-10-25T12:03:50.098Z,110
2016-10-25T12:05:00.425Z,110
2016-10-25T12:06:10.755Z,110
2016-10-25T12:07:20.781Z,105
2016-10-25T12:08:31.078Z,105
2016-10-25T12:09:41.411Z,100
2016-10-25T12:10:51.461Z,100
2016-10-25T12:12:01.793Z,105
2016-10-25T12:13:12.139Z,105
2016-10-25T12:14:22.464Z,110
2016-10-25T12:15:32.512Z,110
2016-10-25T12:16:42.791Z,115
2016-10-25T12:17:53.152Z,120
2016-10-25T12:19:03.507Z,125
2016-10-25T12:20:13.555Z,135
2016-10-25T12:21:23.941Z,145
2016-10-25T12:22:34.340Z,150
2016-10-25T12:23:44.677Z,155
2016-10-25T12:24:54.700Z,160
2016-10-25T12:26:05.052Z,160
2016-10-25T12:27:15.086Z,160
2016-10-25T12:28:25.426Z,165
2016-10-25T12:29:34.819Z,160
2016-10-25T12:30:45.155Z,160
2016-10-25T12:31:55.468Z,160
2016-10-25T12:33:05.834Z,160
2016-10-25T12:34:15.907Z,160
2016-10-25T12:35:26.223Z,160
2016-10-25T12:36:35.670Z,160
2016-10-25T12:37:44.758Z,155
2016-10-25T12:38:54.438Z,155
2016-10-25T12:40:04.497Z,155
2016-10-25T12:41:14.499Z,155
2016-10-25T12:42:24.541Z,150
2016-10-25T12:43:34.846Z,150
2016-10-25T12:44:45.139Z,150
2016-10-25T12:45:55.200Z,145
2016-10-25T12:47:04.900Z,145
2016-10-25T12:48:15.210Z,145
2016-10-25T12:49:25.219Z,145
2016-10-25T12:50:35.540Z,145
2016-10-25T12:51:45.842Z,145
2016-10-25T12:52:56.145Z,145
2016-10-25T12:54:06.175Z,145
2016-10-25T12:55:15.897Z,145
2016-10-25T12:56:26.194Z,140
2016-10-25T12:57:36.220Z,140
2016-10-25T12:58:46.536Z,140
2016-10-25T12:59:56.549Z,140
2016-10-25T13:01:06.949Z,140
2016-10-25T13:02:17.313Z,140
2016-10-25T13:03:27.627Z,135
2016-10-25T13:04:37.658Z,135
2016-10-25T13:05:47.677Z,130
2016-10-25T13:06:58.221Z,130
2016-10-25T13:08:08.526Z,130
2016-10-25T13:09:18.840Z,130
2016-10-25T13:10:29.168Z,130
2016-10-25T13:11:38.851Z,130
2016-10-25T13:12:49.172Z,130
2016-10-25T13:13:59.191Z,125
2016-10-25T13:15:09.514Z,120
2016-10-25T13:16:19.832Z,120
2016-10-25T13:17:30.144Z,120
2016-10-25T13:18:40.135Z,115
2016-10-25T13:19:50.447Z,115
2016-10-25T13:21:00.766Z,115
2016-10-25T13:22:10.815Z,115
2016-10-25T13:23:21.124Z,110
2016-10-25T13:24:31.207Z,110
2016-10-25T13:25:41.506Z,105
2016-10-25T13:26:51.524Z,100
2016-10-25T13:28:01.204Z,100
2016-10-25T13:29:11.516Z,100
2016-10-25T13:30:21.523Z,100
2016-10-25T13:31:31.538Z,95
2016-10-25T13:32:41.541Z,95
2016-10-25T13:33:51.227Z,95
2016-10-25T13:35:01.545Z,95
2016-10-25T13:36:11.550Z,95
2016-10-25T13:37:21.874Z,95
2016-10-25T13:38:32.198Z,95
2016-10-25T13:39:42.215Z,90
2016-10-25T13:40:52.225Z,90
2016-10-25T13:42:01.915Z,90
2016-10-25T13:43:12.216Z,95
2016-10-25T13:44:22.533Z,95
2016-10-25T13:45:32.516Z,100
2016-10-25T13:46:42.846Z,90
2016-10-25T13:47:52.552Z,90
2016-10-25T13:49:02.861Z,90
2016-10-25T13:50:12.552Z,85
2016-10-25T13:51:22.855Z,85
2016-10-25T13:52:32.226Z,90
2016-10-25T13:53:42.552Z,85
2016-10-25T13:54:52.547Z,85
2016-10-25T13:56:02.568Z,85
2016-10-25T13:57:12.867Z,85
2016-10-25T13:58:23.230Z,85
2016-10-25T13:59:33.233Z,85
2016-10-25T14:00:43.532Z,85
2016-10-25T14:01:53.851Z,80
2016-10-25T14:03:04.323Z,80
2016-10-25T14:04:14.633Z,80
2016-10-25T14:05:24.620Z,80
2016-10-25T14:06:34.633Z,75
2016-10-25T14:07:44.647Z,75
2016-10-25T14:08:54.336Z,75
2016-10-25T14:10:03.746Z,70
2016-10-25T14:11:13.452Z,70
2016-10-25T14:12:23.765Z,70
2016-10-25T14:13:34.105Z,70
2016-10-25T14:14:44.420Z,70
2016-10-25T14:15:54.435Z,70
2016-10-25T14:17:03.841Z,70
2016-10-25T14:18:14.153Z,70
2016-10-25T14:19:23.840Z,70
2016-10-25T14:20:33.571Z,65
2016-10-25T14:21:43.868Z,65
2016-10-25T14:22:54.194Z,65
2016-10-25T14:24:04.497Z,60
2016-10-25T14:25:14.817Z,60
2016-10-25T14:26:24.514Z,60
2016-10-25T14:27:34.501Z,55
2016-10-25T14:28:44.783Z,55
2016-10-25T14:29:55.088Z,50
2016-10-25T14:31:05.388Z,45
2016-10-25T14:32:15.412Z,45
2016-10-25T14:33:25.705Z,45
2016-10-25T14:34:35.713Z,45
2016-10-25T14:35:45.716Z,40
2016-10-25T14:36:56.033Z,35
2016-10-25T14:38:06.342Z,30
2016-10-25T14:39:16.341Z,30
2016-10-25T14:40:26.326Z,25
2016-10-25T14:41:36.627Z,25
2016-10-25T14:42:46.921Z,25
2016-10-25T14:43:57.275Z,25
2016-10-25T14:45:07.264Z,25
2016-10-25T14:46:17.269Z,25
2016-10-25T14:47:26.953Z,25
2016-10-25T14:48:36.624Z,25
2016-10-25T14:49:46.939Z,25
2016-10-25T14:50:56.948Z,25
2016-10-25T14:52:06.949Z,25
2016-10-25T14:53:16.941Z,25
2016-10-25T14:54:27.261Z,25
2016-10-25T14:55:37.239Z,25
2016-10-25T14:56:47.557Z,25
2016-10-25T14:57:57.896Z,20
2016-10-25T14:59:07.604Z,20
2016-10-25T15:00:17.628Z,20
2016-10-25T15:01:27.911Z,15
2016-10-25T15:02:37.907Z,15
2016-10-25T15:03:47.919Z,15
2016-10-25T15:04:57.911Z,15
2016-10-25T15:06:07.921Z,15
2016-10-25T15:07:17.935Z,15
2016-10-25T15:08:27.934Z,15
2016-10-25T15:09:37.948Z,15
2016-10-25T15:10:47.953Z,15
2016-10-25T15:11:58.255Z,10
2016-10-25T15:13:08.261Z,10
2016-10-25T15:14:18.273Z,10
2016-10-25T15:15:28.280Z,10
2016-10-25T15:16:38.591Z,10
2016-10-25T15:17:48.884Z,10
2016-10-25T15:18:59.231Z,10
2016-10-25T15:20:09.553Z,10
2016-10-25T15:21:19.873Z,10
2016-10-25T15:22:30.198Z,10
2016-10-25T15:23:39.908Z,5
2016-10-25T15:24:50.205Z,5
2016-10-25T15:26:00.504Z,5
2016-10-25T15:27:10.510Z,5
2016-10-25T15:28:20.863Z,5
2016-10-25T15:29:31.183Z,0
2016-10-25T15:30:41.485Z,0
2016-10-25T15:31:51.490Z,0
2016-10-25T15:33:01.501Z,0
2016-10-25T15:34:11.829Z,0
2016-10-25T15:35:21.840Z,0
2016-10-25T15:36:31.832Z,0
2016-10-25T15:37:41.856Z,0
2016-10-25T15:38:51.884Z,0
2016-10-25T15:40:01.884Z,0
2016-10-25T15:41:12.197Z,0
2016-10-25T15:42:22.214Z,0
2016-10-25T15:43:32.571Z,0
2016-10-25T15:44:42.570Z,0
2016-10-25T15:45:52.881Z,0
2016-10-25T15:47:02.887Z,0
2016-10-25T15:48:12.896Z,0
2016-10-25T15:49:23.229Z,0
2016-10-25T15:50:33.541Z,0
2016-10-25T15:51:43.243Z,0
2016-10-25T15:52:53.563Z,0
2016-10-25T15:54:02.951Z,0
2016-10-25T15:55:13.308Z,0
2016-10-25T15:56:23.606Z,0
2016-10-25T15:57:33.930Z,0
2016-10-25T15:58:44.012Z,0
2016-10-25T15:59:54.316Z,0
2016-10-25T16:01:04.673Z,0
2016-10-25T16:02:14.347Z,0
2016-10-25T16:03:24.370Z,0
2016-10-25T16:04:33.733Z,0
2016-10-25T16:05:44.028Z,0
2016-10-25T16:06:54.018Z,0
2016-10-25T16:08:04.314Z,0
2016-10-25T16:09:14.319Z,0
2016-10-25T16:10:24.628Z,0
2016-10-25T16:11:35.019Z,0
2016-10-25T16:12:45.343Z,0
2016-10-25T16:13:55.058Z,0
2016-10-25T16:15:05.065Z,0
2016-10-25T16:16:15.090Z,0
2016-10-25T16:17:25.403Z,0
2016-10-25T16:18:35.091Z,0
2016-10-25T16:19:45.117Z,0
2016-10-25T16:20:55.444Z,0
2016-10-25T16:22:05.444Z,0
2016-10-25T16:23:31.249Z,0
2016-10-25T16:24:41.233Z,0
2016-10-25T16:25:51.223Z,0
2016-10-25T16:27:01.548Z,0
2016-10-25T16:28:11.515Z,0
2016-10-25T16:29:21.826Z,0
2016-10-25T16:30:31.541Z,0
2016-10-25T16:31:41.921Z,0
2016-10-25T16:32:52.229Z,0
2016-10-25T16:34:02.583Z,0
2016-10-25T16:35:12.271Z,0
2016-10-25T16:36:22.569Z,0
2016-10-25T16:37:32.892Z,0
2016-10-25T16:38:43.241Z,0
2016-10-25T16:39:53.247Z,0
2016-10-25T16:41:03.560Z,0
2016-10-25T16:42:13.570Z,0
2016-10-25T16:43:23.577Z,0
2016-10-25T16:44:33.887Z,0
2016-10-25T16:45:44.211Z,0
2016-10-25T16:46:54.530Z,0
2016-10-25T16:48:04.534Z,0
2016-10-25T16:49:14.826Z,0
2016-10-25T16:50:24.522Z,0
2016-10-25T16:51:34.843Z,0
2016-10-25T16:52:44.865Z,0
2016-10-25T16:53:55.182Z,0
2016-10-25T16:55:04.871Z,0
2016-10-25T16:56:14.550Z,0
2016-10-25T16:57:24.547Z,0
2016-10-25T16:58:34.862Z,0
2016-10-25T16:59:45.175Z,0
2016-10-25T17:00:55.166Z,0
2016-10-25T17:02:05.484Z,0
2016-10-25T17:03:15.481Z,0
2016-10-25T17:04:25.674Z,0
2016-10-25T17:05:36.039Z,0
2016-10-25T17:06:46.049Z,0
2016-10-25T17:07:56.421Z,0
2016-10-25T17:09:06.779Z,0
2016-10-25T17:10:17.120Z,0
2016-10-25T17:11:27.440Z,0
2016-10-25T17:12:37.154Z,0
2016-10-25T17:13:47.480Z,0